Time;durP1;ratioP1;P1;durP2;ratioP2;P2;SDS_P1;SDS_P2;PMS_P1;PMS_P2;Temp;Humidity;BMP_temperature;BMP_pressure;BME280_temperature;BME280_humidity;BME280_pressure;Samples;Min_cycle;Max_cycle;Signal;HPM_P1;HPM_P2
2023/05/31 00:00:14;;;;;;;15.90;12.63;;;22.00;99.90;;;;;;5116359;28;20192;-80
2023/05/31 00:02:40;;;;;;;13.40;10.80;;;22.00;99.90;;;;;;5116097;28;20259;-84
2023/05/31 00:05:06;;;;;;;12.90;10.47;;;22.00;99.90;;;;;;5116199;28;20794;-80
2023/05/31 00:07:32;;;;;;;15.53;11.73;;;21.90;99.90;;;;;;5116103;28;20469;-84
2023/05/31 00:09:57;;;;;;;15.50;11.23;;;21.90;99.90;;;;;;5097645;28;20464;-80
2023/05/31 00:12:23;;;;;;;14.60;10.53;;;21.90;99.90;;;;;;5116028;28;20202;-80
2023/05/31 00:14:49;;;;;;;11.83;10.60;;;21.90;99.90;;;;;;5097811;28;20235;-80
2023/05/31 00:17:14;;;;;;;10.73;9.20;;;21.90;99.90;;;;;;5096647;28;20330;-80
2023/05/31 00:19:40;;;;;;;14.53;11.87;;;21.80;99.90;;;;;;5097988;28;20307;-84
2023/05/31 00:22:06;;;;;;;15.70;10.93;;;21.80;99.90;;;;;;5097578;28;20583;-83
2023/05/31 00:24:31;;;;;;;14.97;10.93;;;21.80;99.90;;;;;;5097417;28;20667;-83
2023/05/31 00:26:57;;;;;;;13.57;11.33;;;21.80;99.90;;;;;;5097493;28;20211;-81
2023/05/31 00:29:23;;;;;;;14.87;10.93;;;21.80;99.90;;;;;;5097670;28;20214;-80
2023/05/31 00:31:48;;;;;;;14.20;12.20;;;21.80;99.90;;;;;;5115534;28;20210;-80
2023/05/31 00:34:14;;;;;;;13.33;10.90;;;21.70;99.90;;;;;;5116013;28;20416;-80
2023/05/31 00:36:40;;;;;;;12.30;10.70;;;21.70;99.90;;;;;;5115561;28;20192;-84
2023/05/31 00:39:05;;;;;;;12.97;9.40;;;21.70;99.90;;;;;;5115881;28;20182;-83
2023/05/31 00:41:31;;;;;;;13.60;10.00;;;21.70;99.90;;;;;;5115412;28;20195;-83
2023/05/31 00:43:57;;;;;;;11.80;10.60;;;21.60;99.90;;;;;;5097251;28;20179;-80
2023/05/31 00:46:29;;;;;;;11.80;10.60;;;21.60;99.90;;;;;;5097127;28;20207;-83
2023/05/31 00:48:55;;;;;;;12.80;10.33;;;21.60;99.90;;;;;;5115451;28;20184;-83
2023/05/31 00:51:22;;;;;;;12.83;10.57;;;21.60;99.90;;;;;;5096958;28;20520;-83
2023/05/31 00:53:48;;;;;;;12.13;10.87;;;21.60;99.90;;;;;;5097235;28;20412;-83
2023/05/31 00:56:15;;;;;;;12.13;10.20;;;21.60;99.90;;;;;;5115206;28;20549;-80
2023/05/31 00:58:41;;;;;;;15.47;10.80;;;21.50;99.90;;;;;;5115479;28;20488;-84
2023/05/31 01:01:08;;;;;;;12.97;10.80;;;21.60;99.90;;;;;;5096608;28;20451;-83
2023/05/31 01:03:34;;;;;;;11.90;10.27;;;21.50;99.90;;;;;;5096831;28;20834;-83
2023/05/31 01:06:00;;;;;;;14.43;11.00;;;21.50;99.90;;;;;;5096616;28;20440;-80
2023/05/31 01:08:27;;;;;;;18.37;12.33;;;21.50;99.90;;;;;;5115274;28;20503;-80
2023/05/31 01:10:56;;;;;;;14.20;11.07;;;21.50;99.90;;;;;;5096621;28;20272;-80
2023/05/31 01:14:04;;;;;;;15.20;10.67;;;21.50;99.90;;;;;;5114866;28;20400;-80
2023/05/31 01:16:39;;;;;;;13.77;10.83;;;21.50;99.90;;;;;;5096585;28;20436;-82
2023/05/31 01:19:12;;;;;;;14.30;11.40;;;21.40;99.90;;;;;;5073063;28;20429;-83
2023/05/31 01:21:57;;;;;;;13.90;11.23;;;21.30;99.90;;;;;;5072853;28;20495;-83
2023/05/31 01:24:30;;;;;;;13.50;11.47;;;21.30;99.90;;;;;;5073098;28;20433;-83
2023/05/31 01:27:00;;;;;;;13.67;11.40;;;21.30;99.90;;;;;;5072605;28;20418;-80
2023/05/31 01:29:27;;;;;;;16.03;11.30;;;21.30;99.90;;;;;;5074445;28;20478;-83
2023/05/31 01:31:55;;;;;;;16.50;12.47;;;21.20;99.90;;;;;;5072656;28;20473;-83
2023/05/31 01:34:20;;;;;;;12.87;10.93;;;21.20;99.90;;;;;;5072802;28;20422;-82
2023/05/31 01:36:46;;;;;;;13.40;11.13;;;21.20;99.90;;;;;;5072616;28;20524;-80
2023/05/31 01:39:12;;;;;;;13.87;10.43;;;21.20;99.90;;;;;;5074233;28;20271;-83
2023/05/31 01:41:43;;;;;;;14.00;11.60;;;21.10;99.90;;;;;;5072509;28;20203;-83
2023/05/31 01:44:10;;;;;;;12.40;11.00;;;21.10;99.90;;;;;;5072651;28;20438;-83
2023/05/31 01:46:38;;;;;;;15.03;11.50;;;21.10;99.90;;;;;;5072508;28;20438;-80
2023/05/31 01:49:04;;;;;;;13.47;11.77;;;21.00;99.90;;;;;;5073708;28;20447;-80
2023/05/31 01:51:32;;;;;;;14.17;11.70;;;21.00;99.90;;;;;;5073596;28;20496;-81
2023/05/31 01:53:58;;;;;;;13.07;11.47;;;21.00;99.90;;;;;;5073908;28;20429;-80
2023/05/31 01:56:25;;;;;;;12.67;11.37;;;21.00;99.90;;;;;;5072367;28;20438;-80
2023/05/31 01:58:51;;;;;;;15.80;11.90;;;21.00;99.90;;;;;;5073926;28;20180;-82
2023/05/31 02:01:18;;;;;;;12.03;10.03;;;21.00;99.90;;;;;;5072289;28;20505;-83
2023/05/31 02:03:44;;;;;;;12.43;11.00;;;21.00;99.90;;;;;;5072378;28;20456;-80
2023/05/31 02:06:13;;;;;;;15.13;11.90;;;20.90;99.90;;;;;;5073439;28;20422;-83
2023/05/31 02:08:39;;;;;;;14.17;11.70;;;20.90;99.90;;;;;;5073834;28;20439;-83
2023/05/31 02:11:05;;;;;;;14.10;12.20;;;20.90;99.90;;;;;;5072095;28;20824;-82
2023/05/31 02:13:30;;;;;;;13.10;11.60;;;20.90;99.90;;;;;;5073690;28;20435;-83
2023/05/31 02:15:57;;;;;;;14.23;11.30;;;20.90;99.90;;;;;;5072110;28;20697;-80
2023/05/31 02:18:26;;;;;;;11.90;10.37;;;20.90;99.90;;;;;;5104356;28;20779;-80
2023/05/31 02:20:53;;;;;;;14.07;10.33;;;20.90;99.90;;;;;;5095656;28;20439;-80
2023/05/31 02:23:19;;;;;;;13.50;11.90;;;20.80;99.90;;;;;;5095660;28;20423;-83
2023/05/31 02:25:46;;;;;;;11.63;10.53;;;20.90;99.90;;;;;;5095666;28;20430;-80
2023/05/31 02:28:13;;;;;;;11.43;9.67;;;20.80;99.90;;;;;;5114062;28;20427;-83
2023/05/31 02:30:40;;;;;;;12.20;9.87;;;20.80;99.90;;;;;;5095544;28;20502;-80
2023/05/31 02:33:07;;;;;;;11.67;9.73;;;20.80;99.90;;;;;;5113985;28;20418;-81
2023/05/31 02:35:32;;;;;;;10.37;9.30;;;20.80;99.90;;;;;;5095565;28;20436;-83
2023/05/31 02:37:58;;;;;;;12.07;8.80;;;20.80;99.90;;;;;;5113827;28;20926;-83
2023/05/31 02:43:46;;;;;;;9.10;8.20;;;20.80;99.90;;;;;;5118325;28;20202;-83
2023/05/31 02:46:11;;;;;;;9.43;8.43;;;20.80;99.90;;;;;;5099531;28;20533;-83
2023/05/31 02:48:37;;;;;;;8.80;7.87;;;20.80;99.90;;;;;;5099509;28;20171;-83
2023/05/31 02:51:03;;;;;;;11.33;8.40;;;20.80;99.90;;;;;;5099306;28;20627;-80
2023/05/31 02:53:30;;;;;;;10.90;8.33;;;20.90;99.90;;;;;;5117564;28;20543;-83
2023/05/31 02:55:55;;;;;;;8.30;7.10;;;20.90;99.90;;;;;;5099273;28;20210;-80
2023/05/31 02:58:21;;;;;;;8.77;7.87;;;20.90;99.90;;;;;;5117671;28;20438;-80
2023/05/31 03:00:47;;;;;;;8.30;7.10;;;20.90;99.90;;;;;;5117505;28;20287;-82
2023/05/31 03:03:13;;;;;;;12.83;8.83;;;20.90;99.90;;;;;;5117559;28;20185;-83
2023/05/31 03:05:39;;;;;;;8.30;6.97;;;21.00;99.90;;;;;;5099076;28;20207;-80
2023/05/31 03:08:04;;;;;;;10.27;7.80;;;21.00;99.90;;;;;;5099070;28;20460;-80
2023/05/31 03:10:30;;;;;;;7.40;6.67;;;21.00;99.90;;;;;;5117136;28;20212;-80
2023/05/31 03:12:56;;;;;;;11.53;7.83;;;21.00;99.90;;;;;;5117239;28;20179;-80
2023/05/31 03:15:21;;;;;;;8.60;7.00;;;21.00;99.90;;;;;;5117113;28;20274;-83
2023/05/31 03:17:47;;;;;;;10.13;6.67;;;21.00;99.90;;;;;;5098801;28;20231;-80
2023/05/31 03:20:13;;;;;;;7.53;6.83;;;21.10;99.90;;;;;;5098820;28;20214;-80
2023/05/31 03:22:39;;;;;;;8.43;7.17;;;21.10;99.90;;;;;;5116851;28;20557;-80
2023/05/31 03:25:05;;;;;;;7.40;6.37;;;21.10;99.90;;;;;;5117016;28;20660;-83
2023/05/31 03:27:31;;;;;;;8.57;6.90;;;21.10;99.90;;;;;;5116944;28;20505;-80
2023/05/31 03:29:57;;;;;;;11.80;6.73;;;21.10;99.90;;;;;;5117236;28;20516;-80
2023/05/31 03:32:23;;;;;;;7.27;6.67;;;21.10;99.90;;;;;;5116880;28;20404;-80
2023/05/31 03:34:49;;;;;;;9.70;7.20;;;21.10;99.90;;;;;;5117230;28;21000;-80
2023/05/31 03:37:15;;;;;;;8.40;7.03;;;21.10;99.90;;;;;;5116907;28;20188;-83
2023/05/31 03:39:40;;;;;;;7.00;6.30;;;21.10;99.90;;;;;;5098680;28;20178;-80
2023/05/31 03:42:06;;;;;;;8.50;7.13;;;21.10;99.90;;;;;;5098402;28;20432;-80
2023/05/31 03:44:32;;;;;;;7.87;6.97;;;21.10;99.90;;;;;;5098379;28;20172;-83
2023/05/31 03:46:58;;;;;;;9.07;6.10;;;21.10;99.90;;;;;;5116648;28;20443;-81
2023/05/31 03:49:24;;;;;;;10.33;6.93;;;21.10;99.90;;;;;;5098399;28;20175;-80
2023/05/31 03:51:50;;;;;;;7.20;6.20;;;21.20;99.90;;;;;;5115878;28;20513;-82
2023/05/31 03:54:16;;;;;;;9.63;6.80;;;21.20;99.90;;;;;;5098138;28;20432;-82
2023/05/31 03:56:41;;;;;;;9.93;8.10;;;21.20;99.90;;;;;;5098128;28;20209;-80
2023/05/31 03:59:08;;;;;;;7.90;6.23;;;21.20;99.90;;;;;;5116569;28;20412;-80
2023/05/31 04:01:34;;;;;;;9.27;7.10;;;21.20;99.90;;;;;;5116527;28;20286;-83
2023/05/31 04:04:00;;;;;;;7.80;6.37;;;21.20;99.90;;;;;;5097956;28;20455;-83
2023/05/31 04:06:26;;;;;;;7.30;6.43;;;21.20;99.90;;;;;;5097940;28;20286;-81
2023/05/31 04:08:52;;;;;;;;;;;21.20;99.90;;;;;;5098077;28;20424;-80
2023/05/31 04:11:18;;;;;;;6.83;6.03;;;21.20;99.90;;;;;;5115977;28;20490;-83
2023/05/31 04:13:43;;;;;;;9.17;6.30;;;21.20;99.90;;;;;;5097504;28;20609;-82
2023/05/31 04:16:09;;;;;;;8.03;6.00;;;21.20;99.90;;;;;;5115834;28;20203;-80
2023/05/31 04:18:35;;;;;;;8.37;5.87;;;21.20;99.90;;;;;;5116056;28;20226;-80
2023/05/31 04:21:01;;;;;;;;;;;21.20;99.90;;;;;;5115193;28;20202;-80
2023/05/31 04:23:26;;;;;;;;;;;21.10;99.90;;;;;;5107539;28;19964;-79
2023/05/31 04:25:52;;;;;;;;;;;21.10;99.90;;;;;;5103677;28;19938;-80
2023/05/31 04:28:19;;;;;;;;;;;21.10;99.90;;;;;;5106278;28;19912;-82
2023/05/31 04:30:45;;;;;;;6.80;6.07;;;21.10;99.90;;;;;;5097437;28;20346;-82
2023/05/31 04:33:11;;;;;;;7.50;6.27;;;21.00;99.90;;;;;;5106557;28;20899;-80
2023/05/31 04:35:37;;;;;;;6.93;5.93;;;21.00;99.90;;;;;;5083367;28;20521;-82
2023/05/31 04:38:02;;;;;;;6.80;5.73;;;21.00;99.90;;;;;;5087763;28;20172;-83
2023/05/31 04:40:31;;;;;;;8.03;5.60;;;21.00;99.90;;;;;;5087095;28;20184;-80
2023/05/31 04:43:00;;;;;;;8.93;7.13;;;21.00;99.90;;;;;;5103893;28;20184;-83
2023/05/31 04:45:27;;;;;;;;;;;21.10;99.90;;;;;;5090879;28;19911;-80
2023/05/31 04:47:52;;;;;;;;;;;21.10;99.90;;;;;;5091843;28;19904;-83
2023/05/31 04:50:18;;;;;;;;;;;21.10;99.90;;;;;;5107760;28;19969;-83
2023/05/31 04:52:44;;;;;;;;;;;21.10;99.90;;;;;;5103888;28;19904;-80
2023/05/31 04:55:10;;;;;;;;;;;21.10;99.90;;;;;;5105798;28;20428;-82
2023/05/31 04:57:35;;;;;;;;;;;21.10;99.90;;;;;;5104296;28;19904;-80
2023/05/31 05:00:08;;;;;;;8.40;7.20;;;21.10;99.90;;;;;;5104100;28;19907;-80
2023/05/31 05:02:33;;;;;;;8.47;5.37;;;21.20;99.90;;;;;;5088958;28;20172;-83
2023/05/31 05:04:59;;;;;;;10.43;6.70;;;21.20;99.90;;;;;;5085436;28;20527;-83
2023/05/31 05:07:25;;;;;;;9.33;6.20;;;21.20;99.90;;;;;;5085992;28;20267;-80
2023/05/31 05:09:50;;;;;;;7.97;5.87;;;21.20;99.90;;;;;;5105858;28;20620;-83
2023/05/31 05:12:16;;;;;;;6.20;5.60;;;21.20;99.90;;;;;;5091495;28;20531;-83
2023/05/31 05:14:42;;;;;;;;;;;21.20;99.90;;;;;;5085145;28;19958;-80
2023/05/31 05:17:07;;;;;;;;;;;21.20;99.90;;;;;;5104106;28;20019;-83
2023/05/31 05:19:33;;;;;;;;;;;21.20;99.90;;;;;;5092533;28;19916;-80
2023/05/31 05:21:58;;;;;;;;;;;21.20;99.90;;;;;;5100198;28;19968;-83
2023/05/31 05:24:25;;;;;;;;;;;21.20;99.90;;;;;;5087761;28;19908;-80
2023/05/31 05:26:51;;;;;;;;;;;21.20;99.90;;;;;;5107517;28;19958;-80
2023/05/31 05:29:16;;;;;;;;;;;21.20;99.90;;;;;;5108920;28;20345;-83
2023/05/31 05:31:42;;;;;;;;;;;21.20;99.90;;;;;;5091916;28;19928;-80
2023/05/31 05:34:09;;;;;;;;;;;21.20;99.90;;;;;;5114732;28;20303;-80
2023/05/31 05:36:36;;;;;;;;;;;21.20;99.90;;;;;;5095768;28;19912;-81
2023/05/31 05:39:05;;;;;;;;;;;21.20;99.90;;;;;;5096624;28;19912;-80
2023/05/31 05:41:31;;;;;;;;;;;21.20;99.90;;;;;;5113291;28;19912;-80
2023/05/31 05:43:57;;;;;;;;;;;21.20;99.90;;;;;;5112542;28;19967;-80
2023/05/31 05:46:22;;;;;;;11.00;5.77;;;21.30;99.90;;;;;;5109486;28;20034;-80
2023/05/31 05:48:48;;;;;;;10.13;5.60;;;21.30;99.90;;;;;;5085542;28;20782;-83
2023/05/31 05:51:14;;;;;;;6.10;5.43;;;21.30;99.90;;;;;;5094070;28;20215;-80
2023/05/31 05:53:40;;;;;;;8.50;6.00;;;21.30;99.90;;;;;;5113805;28;20175;-80
2023/05/31 05:56:05;;;;;;;8.10;6.10;;;21.30;99.90;;;;;;5095806;28;20440;-83
2023/05/31 05:58:31;;;;;;;7.07;5.63;;;21.30;99.90;;;;;;5096101;28;20183;-83
2023/05/31 06:00:57;;;;;;;8.13;5.53;;;21.20;99.90;;;;;;5113252;28;20227;-83
2023/05/31 06:03:26;;;;;;;8.40;5.20;;;21.20;99.90;;;;;;5094659;28;20624;-83
2023/05/31 06:05:51;;;;;;;7.50;6.37;;;21.20;99.90;;;;;;5086130;28;20231;-83
2023/05/31 06:08:18;;;;;;;8.83;5.93;;;21.20;99.90;;;;;;5081936;28;20755;-80
2023/05/31 06:10:43;;;;;;;7.77;6.43;;;21.20;99.90;;;;;;5109879;28;20216;-83
2023/05/31 06:13:10;;;;;;;7.50;5.90;;;21.20;99.90;;;;;;5110008;28;20559;-83
2023/05/31 06:15:35;;;;;;;7.13;5.90;;;21.20;99.90;;;;;;5094675;28;20194;-83
2023/05/31 06:18:01;;;;;;;11.00;6.30;;;21.20;99.90;;;;;;5113360;28;20461;-80
2023/05/31 06:20:27;;;;;;;7.50;5.77;;;21.20;99.90;;;;;;5093861;28;20210;-80
2023/05/31 06:22:53;;;;;;;8.67;6.73;;;21.20;99.90;;;;;;5113410;28;20186;-80
2023/05/31 06:25:20;;;;;;;8.97;8.17;;;21.20;99.90;;;;;;5093625;28;20432;-80
2023/05/31 06:27:46;;;;;;;10.67;7.20;;;21.20;99.90;;;;;;5093143;28;20434;-83
2023/05/31 06:30:13;;;;;;;8.93;7.60;;;21.20;99.90;;;;;;5091345;28;20464;-83
2023/05/31 06:32:39;;;;;;;7.10;6.40;;;21.10;99.90;;;;;;5112790;28;20420;-83
2023/05/31 06:35:06;;;;;;;8.80;6.23;;;21.10;99.90;;;;;;5111613;28;20505;-79
2023/05/31 06:37:32;;;;;;;7.33;6.50;;;21.10;99.90;;;;;;5111973;28;20180;-79
2023/05/31 06:39:57;;;;;;;7.83;6.40;;;21.10;99.90;;;;;;5114067;28;20435;-80
2023/05/31 06:42:23;;;;;;;9.43;8.43;;;21.10;99.90;;;;;;5113403;28;20836;-80
2023/05/31 06:44:50;;;;;;;8.70;6.33;;;21.10;99.90;;;;;;5112168;28;20234;-79
2023/05/31 06:47:15;;;;;;;11.50;7.47;;;21.10;99.90;;;;;;5112214;28;20954;-82
2023/05/31 06:49:42;;;;;;;9.77;6.73;;;21.10;99.90;;;;;;5111816;28;20439;-82
2023/05/31 06:52:08;;;;;;;7.63;6.77;;;21.10;99.90;;;;;;5115469;28;20245;-80
2023/05/31 06:54:36;;;;;;;10.83;6.67;;;21.10;99.90;;;;;;5097398;28;20840;-79
2023/05/31 06:57:03;;;;;;;8.70;7.30;;;21.20;99.90;;;;;;5113830;28;20423;-79
2023/05/31 06:59:28;;;;;;;11.00;8.00;;;21.20;99.90;;;;;;5111902;28;20443;-82
2023/05/31 07:01:54;;;;;;;7.67;6.90;;;21.20;99.90;;;;;;5094112;28;20820;-80
2023/05/31 07:04:20;;;;;;;10.40;6.87;;;21.20;99.90;;;;;;5097742;28;20183;-79
2023/05/31 07:06:46;;;;;;;7.80;6.40;;;21.20;99.90;;;;;;5112083;28;20664;-79
2023/05/31 07:09:12;;;;;;;8.97;6.63;;;21.20;99.90;;;;;;5093267;28;20422;-82
2023/05/31 07:11:41;;;;;;;10.87;7.00;;;21.20;99.90;;;;;;5093154;28;20234;-79
2023/05/31 07:14:07;;;;;;;8.10;6.50;;;21.20;99.90;;;;;;5087547;28;20504;-79
2023/05/31 07:16:33;;;;;;;7.97;6.63;;;21.20;99.90;;;;;;5109210;28;20447;-79
2023/05/31 07:18:58;;;;;;;8.60;7.03;;;21.20;99.90;;;;;;5092085;28;20190;-79
2023/05/31 07:21:24;;;;;;;7.70;7.00;;;21.20;99.90;;;;;;5110340;28;20200;-82
2023/05/31 07:23:51;;;;;;;9.27;6.20;;;21.30;99.90;;;;;;5112586;28;20208;-79
2023/05/31 07:26:18;;;;;;;8.60;6.80;;;21.30;99.90;;;;;;5110741;28;20563;-82
2023/05/31 07:28:44;;;;;;;9.40;6.60;;;21.30;99.90;;;;;;5111108;28;20427;-82
2023/05/31 07:31:11;;;;;;;8.83;6.50;;;21.30;99.90;;;;;;5100180;28;20835;-82
2023/05/31 07:33:37;;;;;;;8.90;7.60;;;21.40;99.90;;;;;;5117942;27;20455;-79
2023/05/31 07:36:03;;;;;;;11.20;6.50;;;21.40;99.90;;;;;;5107668;27;20455;-82
2023/05/31 07:38:29;;;;;;;10.50;7.37;;;21.50;99.90;;;;;;5090475;27;20300;-83
2023/05/31 07:40:54;;;;;;;9.27;6.90;;;21.50;99.90;;;;;;5095654;27;20231;-79
2023/05/31 07:43:20;;;;;;;10.20;7.17;;;21.50;99.90;;;;;;5102186;28;20179;-82
2023/05/31 07:45:46;;;;;;;6.57;5.87;;;21.50;99.90;;;;;;5090669;28;20207;-79
2023/05/31 07:48:12;;;;;;;7.17;6.33;;;21.60;99.90;;;;;;5106071;27;20175;-79
2023/05/31 07:50:37;;;;;;;9.27;6.10;;;21.60;99.90;;;;;;5086369;28;20467;-82
2023/05/31 07:53:03;;;;;;;8.07;6.00;;;21.60;99.90;;;;;;5108379;27;20183;-82
2023/05/31 07:55:29;;;;;;;8.87;6.20;;;21.60;99.90;;;;;;5095907;28;20315;-83
2023/05/31 07:57:54;;;;;;;9.00;6.53;;;21.60;99.90;;;;;;5100155;28;20180;-79
2023/05/31 08:00:20;;;;;;;7.43;6.10;;;21.70;99.90;;;;;;5093312;28;20210;-82
2023/05/31 08:02:46;;;;;;;7.10;6.17;;;21.70;99.90;;;;;;5111152;28;20168;-79
2023/05/31 08:05:13;;;;;;;11.23;6.27;;;21.80;99.90;;;;;;5093032;28;20226;-82
2023/05/31 08:07:38;;;;;;;8.90;6.60;;;21.80;99.90;;;;;;5111602;27;20184;-79
2023/05/31 08:10:05;;;;;;;7.70;6.73;;;21.80;99.90;;;;;;5101291;28;20556;-83
2023/05/31 08:12:31;;;;;;;8.37;6.27;;;21.80;99.90;;;;;;5104532;28;20184;-79
2023/05/31 08:14:57;;;;;;;7.53;6.17;;;21.90;99.90;;;;;;5113562;27;20452;-83
2023/05/31 08:17:22;;;;;;;9.20;6.40;;;21.90;99.90;;;;;;5093616;28;20484;-83
2023/05/31 08:19:48;;;;;;;10.83;6.77;;;22.00;99.90;;;;;;5091238;28;21010;-79
2023/05/31 08:22:14;;;;;;;6.93;6.23;;;22.00;99.90;;;;;;5104861;28;20194;-83
2023/05/31 08:24:40;;;;;;;8.00;6.30;;;22.00;99.90;;;;;;5090322;28;20180;-83
2023/05/31 08:27:05;;;;;;;7.47;6.00;;;22.10;99.90;;;;;;5089887;28;20184;-82
2023/05/31 08:29:31;;;;;;;9.03;6.30;;;22.10;99.90;;;;;;5101380;28;20523;-83
2023/05/31 08:31:57;;;;;;;7.93;5.80;;;22.10;99.90;;;;;;5085285;28;20216;-79
2023/05/31 08:34:22;;;;;;;7.67;6.90;;;22.20;99.90;;;;;;5106151;28;20183;-79
2023/05/31 08:36:48;;;;;;;8.40;5.83;;;22.30;99.90;;;;;;5108088;28;20210;-83
2023/05/31 08:39:14;;;;;;;8.50;6.10;;;22.30;99.90;;;;;;5077419;28;20223;-79
2023/05/31 08:41:53;;;;;;;8.30;6.93;;;22.40;99.90;;;;;;5108615;28;20192;-83
2023/05/31 08:44:20;;;;;;;11.53;6.60;;;22.40;99.90;;;;;;5109839;28;20427;-79
2023/05/31 08:46:48;;;;;;;8.03;6.10;;;22.50;99.90;;;;;;5108936;28;20802;-80
2023/05/31 08:49:15;;;;;;;7.93;5.80;;;22.50;99.90;;;;;;5090856;28;20547;-79
2023/05/31 08:51:47;;;;;;;9.70;6.70;;;22.60;99.90;;;;;;5089651;28;21242;-79
2023/05/31 08:54:14;;;;;;;10.90;6.40;;;22.60;99.90;;;;;;5108023;28;20425;-83
2023/05/31 08:56:40;;;;;;;7.87;6.10;;;22.70;99.90;;;;;;5083387;28;20437;-79
2023/05/31 08:59:16;;;;;;;7.60;5.50;;;22.70;99.90;;;;;;5094335;28;20427;-83
2023/05/31 09:01:43;;;;;;;7.23;5.70;;;22.80;99.90;;;;;;5106366;28;20447;-79
2023/05/31 09:04:09;;;;;;;10.30;6.40;;;22.80;99.90;;;;;;5088465;28;20530;-83
2023/05/31 09:06:36;;;;;;;6.87;6.17;;;22.80;99.90;;;;;;5090122;28;20846;-80
2023/05/31 09:09:02;;;;;;;7.63;5.70;;;22.90;99.90;;;;;;5105564;28;20839;-80
2023/05/31 09:11:28;;;;;;;10.80;6.40;;;22.90;99.90;;;;;;5090825;28;20472;-83
2023/05/31 09:13:54;;;;;;;5.93;5.30;;;23.00;99.90;;;;;;5087246;28;20424;-79
2023/05/31 09:16:22;;;;;;;7.43;5.70;;;23.00;99.90;;;;;;5090065;28;21107;-79
2023/05/31 09:18:48;;;;;;;9.70;5.23;;;23.10;99.90;;;;;;5088168;28;20467;-83
2023/05/31 09:21:14;;;;;;;7.90;5.40;;;23.10;99.90;;;;;;5090718;28;20528;-79
2023/05/31 09:23:58;;;;;;;9.20;6.00;;;23.20;99.90;;;;;;5108927;28;20182;-83
2023/05/31 09:26:24;;;;;;;6.20;5.60;;;23.30;99.90;;;;;;5096317;28;20461;-83
2023/05/31 09:28:51;;;;;;;6.90;5.60;;;23.30;99.90;;;;;;5089440;28;20799;-83
2023/05/31 09:31:17;;;;;;;13.07;5.47;;;23.40;99.90;;;;;;5085226;28;20505;-79
2023/05/31 09:33:45;;;;;;;7.80;5.80;;;23.40;99.90;;;;;;5098971;28;20489;-83
2023/05/31 09:36:12;;;;;;;12.60;6.53;;;23.50;99.90;;;;;;5100415;27;20687;-84
2023/05/31 09:38:38;;;;;;;6.80;5.00;;;23.60;99.90;;;;;;5085063;28;20567;-79
2023/05/31 09:41:19;;;;;;;6.70;6.10;;;23.70;99.90;;;;;;5100752;28;20510;-79
2023/05/31 09:43:46;;;;;;;7.17;5.83;;;23.80;99.90;;;;;;5107917;28;20490;-79
2023/05/31 09:46:17;;;;;;;9.07;6.53;;;23.80;99.90;;;;;;5092093;28;20446;-83
2023/05/31 09:48:45;;;;;;;8.77;5.90;;;23.90;99.90;;;;;;5109393;28;20530;-79
2023/05/31 09:51:13;;;;;;;9.50;7.87;;;24.00;99.90;;;;;;5113209;28;20467;-80
2023/05/31 09:53:43;;;;;;;6.53;5.90;;;24.10;99.90;;;;;;5108633;28;20435;-80
2023/05/31 09:56:10;;;;;;;6.43;5.40;;;24.10;99.90;;;;;;5112724;28;20446;-79
2023/05/31 09:58:36;;;;;;;6.83;6.10;;;24.20;99.90;;;;;;5094090;28;20430;-83
2023/05/31 10:01:03;;;;;;;6.90;6.20;;;24.20;99.90;;;;;;5087292;28;20541;-79
2023/05/31 10:03:31;;;;;;;8.13;6.57;;;24.30;99.90;;;;;;5107039;28;20193;-79
2023/05/31 10:05:57;;;;;;;8.67;6.30;;;24.40;99.90;;;;;;5106289;28;20596;-80
2023/05/31 10:08:23;;;;;;;8.20;6.40;;;24.50;99.90;;;;;;5101158;28;20561;-77
2023/05/31 10:10:49;;;;;;;6.53;5.83;;;24.50;99.90;;;;;;5105845;28;21064;-81
2023/05/31 10:13:18;;;;;;;11.80;6.70;;;24.60;99.90;;;;;;5102477;28;20569;-81
2023/05/31 10:15:48;;;;;;;9.33;6.10;;;24.60;99.90;;;;;;5104305;28;20515;-77
2023/05/31 10:18:16;;;;;;;8.33;6.17;;;24.70;99.90;;;;;;5122016;28;20462;-81
2023/05/31 10:20:52;;;;;;;8.70;6.20;;;24.80;99.90;;;;;;5108785;28;20438;-81
2023/05/31 10:23:21;;;;;;;10.27;6.17;;;24.90;99.90;;;;;;5090843;28;20446;-81
2023/05/31 10:26:09;;;;;;;9.63;6.33;;;25.00;99.90;;;;;;5094529;28;20447;-80
2023/05/31 10:28:40;;;;;;;8.83;6.30;;;25.00;99.90;;;;;;5089210;28;20443;-81
2023/05/31 10:31:10;;;;;;;8.07;5.80;;;25.10;99.90;;;;;;5107302;28;20565;-80
2023/05/31 10:33:39;;;;;;;10.93;6.50;;;25.20;99.90;;;;;;5109663;28;20440;-81
2023/05/31 10:36:05;;;;;;;9.23;6.03;;;25.30;99.90;;;;;;5106574;28;20836;-81
2023/05/31 10:38:41;;;;;;;7.73;6.20;;;25.30;99.90;;;;;;5091729;28;20437;-80
2023/05/31 10:41:10;;;;;;;7.87;6.10;;;25.30;99.90;;;;;;5109228;28;20467;-81
2023/05/31 10:43:42;;;;;;;8.00;6.10;;;25.40;99.90;;;;;;5090639;28;20470;-77
2023/05/31 10:46:15;;;;;;;8.93;7.10;;;25.40;99.90;;;;;;5089198;28;20457;-80
2023/05/31 10:48:46;;;;;;;10.70;5.93;;;25.50;99.90;;;;;;5078037;28;20447;-81
2023/05/31 10:51:15;;;;;;;12.60;6.80;;;25.40;99.90;;;;;;5103718;28;20539;-81
2023/05/31 10:53:45;;;;;;;8.80;6.43;;;25.50;99.90;;;;;;5080674;28;20439;-81
2023/05/31 10:56:15;;;;;;;9.20;6.37;;;25.40;99.90;;;;;;5098905;28;20459;-78
2023/05/31 10:58:43;;;;;;;7.60;6.80;;;25.40;99.90;;;;;;5102677;28;20429;-78
2023/05/31 11:01:13;;;;;;;7.10;6.30;;;25.50;99.90;;;;;;5107537;27;20451;-78
2023/05/31 11:03:58;;;;;;;9.10;6.50;;;25.60;99.90;;;;;;5085605;28;20466;-81
2023/05/31 11:06:28;;;;;;;7.17;5.60;;;25.60;99.90;;;;;;5107246;27;20447;-81
2023/05/31 11:09:05;;;;;;;8.87;6.23;;;25.70;99.90;;;;;;5091953;28;20443;-78
2023/05/31 11:11:31;;;;;;;9.03;5.93;;;25.60;99.90;;;;;;5093232;27;20863;-80
2023/05/31 11:14:02;;;;;;;9.67;6.70;;;25.60;99.90;;;;;;5108995;27;20746;-77
2023/05/31 11:16:34;;;;;;;9.07;6.33;;;25.60;99.90;;;;;;5086279;28;20238;-81
2023/05/31 11:19:07;;;;;;;10.20;6.77;;;25.70;99.90;;;;;;5088223;28;20491;-78
2023/05/31 11:21:51;;;;;;;7.77;6.17;;;25.70;99.90;;;;;;5106572;28;20452;-81
2023/05/31 11:24:33;;;;;;;10.17;6.40;;;25.70;99.90;;;;;;5107161;28;20508;-78
2023/05/31 11:27:01;;;;;;;9.03;6.50;;;25.80;99.90;;;;;;5101179;28;20428;-81
2023/05/31 11:29:48;;;;;;;9.20;6.37;;;25.90;99.90;;;;;;5089352;28;20423;-78
2023/05/31 11:32:18;;;;;;;8.00;6.77;;;25.90;99.90;;;;;;5103788;27;20543;-77
2023/05/31 11:34:53;;;;;;;9.17;6.80;;;25.90;99.90;;;;;;5106586;28;20428;-80
2023/05/31 11:37:23;;;;;;;7.57;6.27;;;25.90;99.90;;;;;;5109451;28;20753;-78
2023/05/31 11:39:49;;;;;;;10.67;6.80;;;26.00;99.90;;;;;;5103693;27;20447;-81
2023/05/31 11:42:15;;;;;;;7.57;5.97;;;25.90;99.90;;;;;;5111499;27;20456;-78
2023/05/31 11:44:46;;;;;;;7.30;6.30;;;26.00;99.90;;;;;;5114895;27;20523;-78
2023/05/31 11:47:23;;;;;;;8.30;6.13;;;26.00;99.90;;;;;;5110492;28;20440;-79
2023/05/31 11:49:49;;;;;;;6.50;5.83;;;26.00;99.90;;;;;;5091844;28;20944;-78
2023/05/31 11:52:16;;;;;;;8.63;7.00;;;26.10;99.90;;;;;;5108642;28;20467;-79
2023/05/31 11:54:47;;;;;;;7.77;6.47;;;26.20;99.90;;;;;;5095131;27;20943;-77
2023/05/31 11:57:14;;;;;;;8.37;6.53;;;26.20;99.90;;;;;;5101412;27;20715;-79
2023/05/31 11:59:40;;;;;;;8.33;5.90;;;26.20;99.90;;;;;;5107201;27;20435;-79
2023/05/31 12:02:07;;;;;;;8.37;6.13;;;26.30;99.90;;;;;;5112533;27;20580;-78
2023/05/31 12:04:36;;;;;;;10.03;7.07;;;26.40;99.90;;;;;;5088848;28;20511;-78
2023/05/31 12:07:04;;;;;;;10.00;7.00;;;26.40;99.90;;;;;;5105317;28;20816;-82
2023/05/31 12:09:30;;;;;;;8.50;6.60;;;26.30;99.90;;;;;;5106974;28;20424;-79
2023/05/31 12:11:56;;;;;;;8.97;6.50;;;26.40;99.90;;;;;;5092765;28;20479;-81
2023/05/31 12:14:23;;;;;;;12.43;6.30;;;26.40;99.90;;;;;;5114703;27;20480;-81
2023/05/31 12:16:49;;;;;;;11.23;6.97;;;26.50;99.90;;;;;;5093864;28;20948;-82
2023/05/31 12:19:16;;;;;;;10.40;6.00;;;26.50;99.90;;;;;;5093495;28;20440;-78
2023/05/31 12:21:42;;;;;;;7.83;6.20;;;26.50;99.90;;;;;;5109694;27;20212;-78
2023/05/31 12:24:13;;;;;;;7.87;6.40;;;26.50;99.90;;;;;;5091193;28;20447;-81
2023/05/31 12:26:39;;;;;;;12.93;6.20;;;26.40;99.90;;;;;;5107198;27;20538;-78
2023/05/31 12:29:05;;;;;;;7.37;5.60;;;26.50;99.90;;;;;;5092338;28;20994;-82
2023/05/31 12:31:38;;;;;;;11.17;7.20;;;26.50;99.90;;;;;;5087658;28;20572;-79
2023/05/31 12:34:05;;;;;;;6.43;5.70;;;26.60;99.90;;;;;;5093436;27;20850;-82
2023/05/31 12:36:45;;;;;;;10.00;6.37;;;26.70;99.90;;;;;;5092958;28;20467;-78
2023/05/31 12:39:17;;;;;;;9.93;5.87;;;26.60;99.90;;;;;;5106480;27;20175;-82
2023/05/31 12:41:44;;;;;;;9.50;6.60;;;26.60;99.90;;;;;;5086332;28;20513;-82
2023/05/31 12:44:12;;;;;;;6.17;5.27;;;26.70;99.90;;;;;;5107609;27;20451;-79
2023/05/31 12:46:42;;;;;;;6.20;5.60;;;26.70;99.90;;;;;;5109065;27;20492;-78
2023/05/31 12:49:27;;;;;;;9.67;5.70;;;26.70;99.90;;;;;;5111428;28;20861;-81
2023/05/31 12:52:09;;;;;;;9.03;5.43;;;26.70;99.90;;;;;;5090613;28;20532;-82